createdAt,value
2018-09-24T00:01:56.018Z,97.00
2018-09-24T00:04:24.963Z,97.00
2018-09-24T00:06:53.375Z,97.00
2018-09-24T00:09:21.837Z,97.00
2018-09-24T00:11:50.218Z,97.00
2018-09-24T00:14:18.568Z,97.00
2018-09-24T00:16:46.981Z,97.00
2018-09-24T00:19:15.384Z,97.00
2018-09-24T00:21:43.789Z,97.00
2018-09-24T00:24:12.167Z,97.00
2018-09-24T00:26:40.566Z,97.00
2018-09-24T00:29:08.973Z,97.00
2018-09-24T00:31:37.460Z,97.00
2018-09-24T00:34:05.935Z,97.00
2018-09-24T00:36:34.278Z,97.00
2018-09-24T00:39:04.916Z,97.00
2018-09-24T00:41:33.732Z,97.00
2018-09-24T00:44:02.541Z,97.00
2018-09-24T00:46:30.924Z,97.00
2018-09-24T00:48:59.331Z,97.00
2018-09-24T00:51:27.893Z,97.00
2018-09-24T00:53:56.243Z,97.00
2018-09-24T00:56:24.649Z,97.00
2018-09-24T00:58:53.128Z,97.00
2018-09-24T01:01:24.284Z,97.00
2018-09-24T01:03:52.693Z,97.00
2018-09-24T01:06:21.131Z,97.00
2018-09-24T01:08:49.759Z,97.00
2018-09-24T01:11:18.184Z,97.00
2018-09-24T01:13:46.586Z,97.00
2018-09-24T01:16:15.157Z,97.00
2018-09-24T01:18:43.983Z,97.00
2018-09-24T01:21:12.413Z,97.00
2018-09-24T01:23:40.872Z,97.00
2018-09-24T01:26:09.413Z,97.00
2018-09-24T01:28:38.867Z,97.00
2018-09-24T01:31:07.854Z,97.00
2018-09-24T01:33:36.982Z,97.00
2018-09-24T01:36:05.515Z,97.00
2018-09-24T01:38:34.895Z,97.00
2018-09-24T01:41:04.149Z,97.00
2018-09-24T01:43:32.702Z,97.00
2018-09-24T01:46:02.609Z,97.00
2018-09-24T01:48:31.001Z,97.00
2018-09-24T01:50:59.500Z,97.00
2018-09-24T01:53:27.905Z,97.00
2018-09-24T01:55:56.360Z,97.00
2018-09-24T01:58:25.712Z,97.00
2018-09-24T02:00:54.148Z,97.00
2018-09-24T02:03:23.896Z,97.00
2018-09-24T02:05:52.277Z,97.00
2018-09-24T02:08:20.680Z,97.00
2018-09-24T02:10:49.112Z,97.00
2018-09-24T02:13:17.478Z,97.00
2018-09-24T02:15:46.015Z,97.00
2018-09-24T02:18:14.450Z,97.00
2018-09-24T02:20:45.319Z,97.00
2018-09-24T02:23:14.318Z,97.00
2018-09-24T02:25:42.763Z,97.00
2018-09-24T02:28:11.170Z,97.00
2018-09-24T02:30:39.545Z,97.00
2018-09-24T02:33:10.530Z,97.00
2018-09-24T02:35:43.427Z,97.00
2018-09-24T02:38:12.819Z,97.00
2018-09-24T02:40:41.259Z,97.00
2018-09-24T02:43:09.635Z,97.00
2018-09-24T02:45:38.045Z,97.00
2018-09-24T02:48:06.545Z,97.00
2018-09-24T02:50:38.036Z,97.00
2018-09-24T02:53:07.580Z,97.00
2018-09-24T02:55:35.997Z,97.00
2018-09-24T02:58:04.374Z,97.00
2018-09-24T03:00:32.800Z,97.00
2018-09-24T03:03:01.982Z,97.00
2018-09-24T03:05:30.421Z,97.00
2018-09-24T03:07:59.437Z,97.00
2018-09-24T03:10:27.821Z,97.00
2018-09-24T03:12:56.207Z,97.00
2018-09-24T03:15:24.725Z,97.00
2018-09-24T03:17:53.111Z,97.00
2018-09-24T03:20:21.607Z,97.00
2018-09-24T03:22:49.976Z,97.00
2018-09-24T03:25:19.424Z,97.00
2018-09-24T03:27:47.910Z,97.00
2018-09-24T03:30:16.619Z,97.00
2018-09-24T03:32:45.037Z,97.00
2018-09-24T03:35:19.902Z,97.00
2018-09-24T03:37:48.281Z,97.00
2018-09-24T03:40:16.689Z,97.00
2018-09-24T03:42:45.067Z,97.00
2018-09-24T03:45:13.476Z,97.00
2018-09-24T03:47:41.903Z,97.00
2018-09-24T03:50:12.000Z,97.00
2018-09-24T03:52:40.385Z,97.00
2018-09-24T03:55:08.817Z,97.00
2018-09-24T03:57:37.276Z,97.00
2018-09-24T04:00:05.775Z,97.00
2018-09-24T04:02:34.184Z,97.00
2018-09-24T04:05:07.875Z,97.00
2018-09-24T04:07:41.718Z,97.00
2018-09-24T04:10:15.697Z,97.00
2018-09-24T04:12:49.520Z,97.00
2018-09-24T04:15:23.193Z,97.00
2018-09-24T04:17:56.823Z,97.00
2018-09-24T04:20:30.542Z,97.00
2018-09-24T04:23:04.269Z,97.00
2018-09-24T04:25:37.930Z,97.00
2018-09-24T04:28:11.640Z,97.00
2018-09-24T04:30:45.251Z,97.00
2018-09-24T04:33:18.817Z,97.00
2018-09-24T04:35:52.529Z,97.00
2018-09-24T04:38:26.299Z,97.00
2018-09-24T04:40:59.890Z,97.00
2018-09-24T04:43:33.834Z,97.00
2018-09-24T04:46:07.624Z,97.00
2018-09-24T04:48:41.828Z,97.00
2018-09-24T04:51:15.729Z,97.00
2018-09-24T04:53:49.424Z,97.00
2018-09-24T04:56:23.182Z,97.00
2018-09-24T04:58:56.885Z,97.00
2018-09-24T05:01:30.619Z,97.00
2018-09-24T05:04:04.279Z,97.00
2018-09-24T05:06:38.156Z,97.00
2018-09-24T05:09:13.878Z,97.00
2018-09-24T05:11:47.884Z,97.00
2018-09-24T05:14:23.231Z,97.00
2018-09-24T05:16:56.811Z,97.00
2018-09-24T05:19:30.597Z,97.00
2018-09-24T05:22:04.324Z,97.00
2018-09-24T05:24:38.102Z,97.00
2018-09-24T05:27:12.027Z,97.00
2018-09-24T05:29:45.824Z,97.00
2018-09-24T05:32:19.641Z,97.00
2018-09-24T05:34:54.169Z,97.00
2018-09-24T05:37:27.942Z,97.00
2018-09-24T05:40:01.543Z,97.00
2018-09-24T05:42:35.157Z,97.00
2018-09-24T05:45:08.868Z,97.00
2018-09-24T05:47:42.634Z,97.00
2018-09-24T05:50:16.272Z,97.00
2018-09-24T05:52:49.856Z,97.00
2018-09-24T05:55:23.477Z,97.00
2018-09-24T05:57:57.158Z,97.00
2018-09-24T06:00:30.933Z,97.00
2018-09-24T06:03:04.572Z,97.00
2018-09-24T06:05:38.253Z,97.00
2018-09-24T06:08:11.953Z,97.00
2018-09-24T06:10:45.689Z,97.00
2018-09-24T06:13:19.558Z,97.00
2018-09-24T06:15:54.159Z,97.00
2018-09-24T06:18:27.835Z,97.00
2018-09-24T06:21:01.467Z,97.00
2018-09-24T06:23:35.224Z,97.00
2018-09-24T06:26:09.236Z,97.00
2018-09-24T06:28:42.899Z,97.00
2018-09-24T06:31:16.773Z,97.00
2018-09-24T06:33:50.419Z,97.00
2018-09-24T06:36:24.159Z,97.00
2018-09-24T06:38:57.811Z,97.00
2018-09-24T06:41:31.629Z,97.00
2018-09-24T06:44:05.398Z,97.00
2018-09-24T06:46:39.152Z,97.00
2018-09-24T06:49:12.900Z,97.00
2018-09-24T06:51:46.726Z,97.00
2018-09-24T06:54:20.273Z,97.00
2018-09-24T06:56:53.986Z,97.00
2018-09-24T06:59:27.837Z,97.00
2018-09-24T07:02:01.642Z,97.00
2018-09-24T07:04:35.390Z,97.00
2018-09-24T07:07:09.104Z,97.00
2018-09-24T07:09:42.733Z,97.00
2018-09-24T07:12:16.453Z,97.00
2018-09-24T07:14:50.121Z,97.00
2018-09-24T07:17:23.745Z,97.00
2018-09-24T07:19:57.502Z,97.00
2018-09-24T07:22:31.242Z,97.00
2018-09-24T07:25:05.096Z,97.00
2018-09-24T07:27:38.991Z,97.00
2018-09-24T07:30:12.717Z,97.00
2018-09-24T07:32:46.539Z,97.00
2018-09-24T07:35:20.108Z,97.00
2018-09-24T07:37:53.953Z,97.00
2018-09-24T07:40:27.629Z,97.00
2018-09-24T07:43:01.409Z,97.00
2018-09-24T07:45:35.130Z,97.00
2018-09-24T07:48:08.925Z,97.00
2018-09-24T07:50:42.661Z,97.00
2018-09-24T07:53:16.473Z,97.00
2018-09-24T07:55:50.673Z,97.00
2018-09-24T07:58:24.435Z,97.00
2018-09-24T08:00:58.186Z,97.00
2018-09-24T08:03:31.808Z,97.00
2018-09-24T08:06:05.365Z,97.00
2018-09-24T08:08:39.365Z,97.00
2018-09-24T08:11:13.230Z,97.00
2018-09-24T08:13:47.005Z,97.00
2018-09-24T08:16:20.870Z,97.00
2018-09-24T08:18:54.509Z,97.00
2018-09-24T08:21:28.363Z,97.00
2018-09-24T08:24:02.003Z,97.00
2018-09-24T08:26:35.883Z,97.00
2018-09-24T08:29:10.886Z,97.00
2018-09-24T08:31:44.580Z,97.00
2018-09-24T08:34:18.299Z,97.00
2018-09-24T08:36:51.968Z,97.00
2018-09-24T08:39:25.664Z,97.00
2018-09-24T08:41:59.332Z,97.00
2018-09-24T08:44:33.072Z,97.00
2018-09-24T08:47:06.953Z,95.60
2018-09-24T08:49:40.697Z,96.20
2018-09-24T08:52:14.608Z,96.20
2018-09-24T08:54:48.323Z,95.20
2018-09-24T08:57:22.079Z,95.30
2018-09-24T08:59:55.723Z,96.10
2018-09-24T09:02:29.340Z,95.60
2018-09-24T09:05:03.062Z,95.60
2018-09-24T09:07:36.974Z,94.20
2018-09-24T09:10:10.637Z,95.10
2018-09-24T09:12:44.449Z,95.10
2018-09-24T09:15:18.052Z,94.50
2018-09-24T09:17:51.596Z,93.60
2018-09-24T09:20:25.217Z,93.50
2018-09-24T09:22:59.051Z,93.40
2018-09-24T09:25:32.796Z,93.70
2018-09-24T09:28:06.512Z,92.80
2018-09-24T09:30:40.150Z,93.20
2018-09-24T09:33:13.986Z,93.40
2018-09-24T09:35:47.874Z,92.70
2018-09-24T09:38:21.572Z,91.30
2018-09-24T09:40:55.243Z,90.90
2018-09-24T09:43:29.044Z,91.40
2018-09-24T09:46:02.901Z,90.70
2018-09-24T09:48:36.592Z,89.30
2018-09-24T09:51:10.361Z,88.80
2018-09-24T09:53:44.130Z,89.40
2018-09-24T09:56:18.020Z,89.10
2018-09-24T09:58:51.881Z,87.40
2018-09-24T10:01:25.697Z,88.30
2018-09-24T10:03:59.600Z,87.20
2018-09-24T10:06:33.203Z,88.00
2018-09-24T10:09:06.892Z,88.50
2018-09-24T10:11:40.719Z,86.60
2018-09-24T10:14:14.540Z,84.90
2018-09-24T10:16:48.324Z,84.20
2018-09-24T10:19:22.146Z,85.10
2018-09-24T10:21:55.925Z,86.10
2018-09-24T10:24:29.763Z,86.70
2018-09-24T10:27:03.437Z,86.40
2018-09-24T10:29:37.276Z,86.10
2018-09-24T10:32:11.092Z,85.30
2018-09-24T10:34:44.779Z,85.10
2018-09-24T10:37:18.631Z,85.60
2018-09-24T10:39:52.295Z,84.90
2018-09-24T10:42:26.119Z,84.70
2018-09-24T10:44:59.664Z,85.50
2018-09-24T10:47:33.311Z,86.60
2018-09-24T10:50:07.189Z,86.60
2018-09-24T10:52:40.878Z,84.90
2018-09-24T10:55:14.522Z,84.20
2018-09-24T10:57:48.155Z,84.50
2018-09-24T11:00:21.830Z,84.20
2018-09-24T11:02:55.632Z,83.60
2018-09-24T11:05:29.455Z,84.10
2018-09-24T11:08:03.067Z,83.70
2018-09-24T11:10:36.615Z,83.20
2018-09-24T11:13:10.319Z,82.90
2018-09-24T11:15:44.223Z,83.50
2018-09-24T11:18:18.014Z,83.60
2018-09-24T11:20:51.569Z,84.00
2018-09-24T11:23:25.851Z,83.40
2018-09-24T11:25:59.683Z,83.20
2018-09-24T11:28:33.417Z,82.90
2018-09-24T11:31:07.187Z,81.50
2018-09-24T11:33:41.063Z,81.90
2018-09-24T11:36:14.935Z,83.00
2018-09-24T11:38:48.728Z,83.70
2018-09-24T11:41:22.363Z,84.10
2018-09-24T11:43:55.990Z,85.60
2018-09-24T11:46:30.886Z,85.80
2018-09-24T11:49:04.802Z,85.90
2018-09-24T11:51:39.652Z,87.50
2018-09-24T11:54:13.351Z,91.60
2018-09-24T11:56:47.207Z,96.30
2018-09-24T11:59:20.855Z,97.00
2018-09-24T12:01:54.498Z,97.00
2018-09-24T12:04:30.908Z,97.00
2018-09-24T12:07:04.615Z,97.00
2018-09-24T12:09:38.307Z,97.00
2018-09-24T12:12:12.247Z,97.00
2018-09-24T12:14:46.013Z,94.50
2018-09-24T12:17:19.658Z,95.80
2018-09-24T12:19:53.399Z,95.80
2018-09-24T12:22:27.251Z,96.00
2018-09-24T12:25:01.030Z,92.90
2018-09-24T12:27:34.742Z,93.40
2018-09-24T12:30:08.575Z,94.80
2018-09-24T12:32:42.248Z,95.10
2018-09-24T12:35:15.983Z,93.30
2018-09-24T12:37:50.707Z,91.60
2018-09-24T12:40:24.333Z,92.00
2018-09-24T12:42:58.275Z,89.40
2018-09-24T12:45:33.492Z,89.80
2018-09-24T12:48:08.832Z,88.80
2018-09-24T12:50:42.455Z,89.10
2018-09-24T12:53:16.109Z,91.60
2018-09-24T12:55:49.792Z,90.20
2018-09-24T12:58:23.607Z,91.30
2018-09-24T13:00:57.365Z,91.70
2018-09-24T13:03:31.023Z,90.20
2018-09-24T13:06:04.742Z,88.60
2018-09-24T13:08:38.487Z,88.60
2018-09-24T13:11:12.328Z,87.30
2018-09-24T13:13:46.017Z,87.60
2018-09-24T13:16:19.854Z,87.30
2018-09-24T13:18:53.543Z,87.40
2018-09-24T13:21:27.348Z,86.20
2018-09-24T13:24:01.075Z,86.10
2018-09-24T13:29:26.036Z,84.80
2018-09-24T13:32:00.081Z,84.60
2018-09-24T13:34:33.862Z,83.40
2018-09-24T13:37:07.494Z,83.00
2018-09-24T13:39:42.692Z,82.70
2018-09-24T13:42:16.353Z,82.50
2018-09-24T13:44:50.760Z,81.70
2018-09-24T13:47:24.550Z,81.40
2018-09-24T13:49:58.246Z,80.50
2018-09-24T13:52:31.966Z,82.20
2018-09-24T13:55:05.737Z,82.90
2018-09-24T13:57:39.515Z,84.80
2018-09-24T14:00:13.577Z,86.70
2018-09-24T14:02:47.375Z,88.60
2018-09-24T14:05:21.211Z,89.90
2018-09-24T14:07:54.939Z,91.80
2018-09-24T14:10:28.585Z,91.10
2018-09-24T14:13:02.203Z,89.20
2018-09-24T14:15:35.843Z,86.20
2018-09-24T14:18:09.488Z,84.20
2018-09-24T14:20:43.397Z,83.00
2018-09-24T14:23:17.062Z,85.60
2018-09-24T14:25:50.906Z,86.80
2018-09-24T14:28:24.562Z,84.80
2018-09-24T14:30:58.284Z,84.50
2018-09-24T14:33:31.964Z,83.70
2018-09-24T14:36:05.751Z,83.40
2018-09-24T14:38:39.410Z,81.50
2018-09-24T14:41:13.246Z,82.10
2018-09-24T14:43:46.987Z,82.20
2018-09-24T14:46:20.732Z,82.80
2018-09-24T14:48:54.527Z,82.90
2018-09-24T14:51:28.636Z,81.60
2018-09-24T14:54:02.435Z,81.10
2018-09-24T14:56:36.186Z,79.90
2018-09-24T14:59:09.954Z,80.00
2018-09-24T15:01:43.779Z,79.90
2018-09-24T15:04:17.488Z,78.20
2018-09-24T15:06:51.327Z,77.90
2018-09-24T15:09:26.161Z,77.80
2018-09-24T15:11:59.945Z,78.00
2018-09-24T15:14:33.983Z,77.80
2018-09-24T15:17:08.348Z,78.50
2018-09-24T15:19:42.146Z,78.50
2018-09-24T15:22:16.786Z,79.40
2018-09-24T15:24:50.577Z,80.80
2018-09-24T15:27:25.450Z,82.30
2018-09-24T15:29:59.222Z,84.50
2018-09-24T15:32:32.992Z,84.90
2018-09-24T15:35:06.719Z,85.70
2018-09-24T15:37:40.281Z,84.80
2018-09-24T15:40:16.192Z,84.50
2018-09-24T15:42:50.221Z,83.70
2018-09-24T15:45:30.650Z,83.70
2018-09-24T15:48:04.633Z,84.80
2018-09-24T15:50:38.429Z,85.40
2018-09-24T15:53:12.350Z,86.30
2018-09-24T15:55:46.106Z,87.40
2018-09-24T15:58:19.997Z,88.30
2018-09-24T16:00:53.961Z,89.10
2018-09-24T16:03:27.711Z,89.00
2018-09-24T16:06:01.520Z,89.10
2018-09-24T16:08:35.339Z,88.70
2018-09-24T16:11:08.988Z,89.60
2018-09-24T16:13:42.840Z,90.40
2018-09-24T16:16:16.603Z,94.60
2018-09-24T16:18:50.306Z,97.00
2018-09-24T16:21:24.662Z,97.00
2018-09-24T16:24:01.624Z,97.00
2018-09-24T16:26:35.820Z,97.00
2018-09-24T16:29:09.705Z,97.00
2018-09-24T16:31:43.429Z,97.00
2018-09-24T16:34:17.293Z,97.00
2018-09-24T16:36:50.907Z,97.00
2018-09-24T16:39:24.783Z,97.00
2018-09-24T16:42:00.652Z,97.00
2018-09-24T16:44:36.757Z,97.00
2018-09-24T16:47:10.898Z,97.00
2018-09-24T16:49:45.079Z,97.00
2018-09-24T16:52:18.905Z,97.00
2018-09-24T16:54:53.218Z,97.00
2018-09-24T16:57:27.215Z,97.00
2018-09-24T17:00:01.086Z,97.00
2018-09-24T17:02:35.494Z,97.00
2018-09-24T17:05:10.041Z,97.00
2018-09-24T17:07:43.950Z,97.00
2018-09-24T17:10:17.979Z,97.00
2018-09-24T17:12:51.870Z,97.00
2018-09-24T17:15:26.065Z,97.00
2018-09-24T17:18:00.385Z,97.00
2018-09-24T17:20:34.290Z,97.00
2018-09-24T17:23:08.092Z,97.00
2018-09-24T17:25:42.032Z,97.00
2018-09-24T17:28:17.096Z,97.00
2018-09-24T17:30:50.777Z,97.00
2018-09-24T17:33:24.860Z,97.00
2018-09-24T17:35:58.545Z,97.00
2018-09-24T17:38:32.514Z,97.00
2018-09-24T17:41:06.149Z,97.00
2018-09-24T17:43:41.055Z,97.00
2018-09-24T17:46:14.727Z,97.00
2018-09-24T17:48:49.303Z,97.00
2018-09-24T17:51:24.205Z,97.00
2018-09-24T17:53:58.212Z,97.00
2018-09-24T17:56:31.810Z,97.00
2018-09-24T17:59:06.087Z,97.00
2018-09-24T18:01:40.077Z,97.00
2018-09-24T18:04:13.938Z,97.00
2018-09-24T18:06:47.900Z,97.00
2018-09-24T18:09:21.644Z,97.00
2018-09-24T18:11:55.538Z,97.00
2018-09-24T18:14:29.562Z,97.00
2018-09-24T18:17:03.173Z,97.00
2018-09-24T18:19:37.004Z,97.00
2018-09-24T18:22:10.707Z,97.00
2018-09-24T18:24:44.529Z,97.00
2018-09-24T18:27:18.143Z,97.00
2018-09-24T18:29:52.564Z,97.00
2018-09-24T18:32:26.110Z,97.00
2018-09-24T18:34:59.997Z,97.00
2018-09-24T18:37:33.868Z,97.00
2018-09-24T18:40:07.701Z,97.00
2018-09-24T18:42:41.598Z,97.00
2018-09-24T18:45:17.466Z,97.00
2018-09-24T18:47:51.291Z,97.00
2018-09-24T18:50:24.938Z,97.00
2018-09-24T18:52:58.629Z,97.00
2018-09-24T18:55:32.268Z,97.00
2018-09-24T18:58:05.995Z,97.00
2018-09-24T19:00:39.691Z,97.00
2018-09-24T19:03:13.599Z,97.00
2018-09-24T19:05:47.350Z,97.00
2018-09-24T19:08:21.183Z,97.00
2018-09-24T19:10:54.987Z,97.00
2018-09-24T19:13:28.801Z,97.00
2018-09-24T19:16:02.660Z,97.00
2018-09-24T19:18:36.469Z,97.00
2018-09-24T19:21:10.054Z,97.00
2018-09-24T19:23:43.820Z,97.00
2018-09-24T19:26:17.487Z,97.00
2018-09-24T19:28:51.521Z,97.00
2018-09-24T19:31:25.543Z,97.00
2018-09-24T19:33:59.092Z,97.00
2018-09-24T19:36:32.761Z,97.00
2018-09-24T19:39:06.615Z,97.00
2018-09-24T19:41:40.441Z,97.00
2018-09-24T19:44:14.462Z,97.00
2018-09-24T19:46:48.339Z,97.00
2018-09-24T19:49:22.032Z,97.00
2018-09-24T19:51:55.827Z,97.00
2018-09-24T19:54:36.423Z,97.00
2018-09-24T19:57:10.160Z,97.00
2018-09-24T19:59:43.904Z,97.00
2018-09-24T20:02:17.661Z,97.00
2018-09-24T20:04:51.526Z,97.00
2018-09-24T20:07:26.051Z,97.00
2018-09-24T20:10:02.789Z,97.00
2018-09-24T20:12:36.633Z,97.00
2018-09-24T20:15:10.868Z,97.00
2018-09-24T20:17:44.665Z,97.00
2018-09-24T20:20:18.408Z,97.00
2018-09-24T20:22:53.320Z,97.00
2018-09-24T20:25:27.009Z,97.00
2018-09-24T20:28:01.466Z,97.00
2018-09-24T20:30:36.332Z,97.00
2018-09-24T20:33:10.280Z,97.00
2018-09-24T20:35:44.270Z,97.00
2018-09-24T20:38:18.028Z,97.00
2018-09-24T20:40:51.837Z,97.00
2018-09-24T20:46:10.122Z,97.00
2018-09-24T20:48:44.095Z,97.00
2018-09-24T20:51:17.918Z,97.00
2018-09-24T20:53:51.775Z,97.00
2018-09-24T20:59:36.244Z,97.00
2018-09-24T21:02:10.079Z,97.00
2018-09-24T21:04:47.236Z,97.00
2018-09-24T21:07:21.188Z,97.00
2018-09-24T21:09:54.994Z,97.00
2018-09-24T21:12:29.435Z,97.00
2018-09-24T21:15:03.192Z,97.00
2018-09-24T21:17:36.931Z,97.00
2018-09-24T21:20:11.124Z,97.00
2018-09-24T21:22:44.759Z,97.00
2018-09-24T21:25:18.493Z,97.00
2018-09-24T21:27:52.370Z,97.00
2018-09-24T21:30:26.905Z,97.00
2018-09-24T21:33:00.767Z,97.00
2018-09-24T21:35:34.429Z,97.00
2018-09-24T21:38:08.213Z,97.00
2018-09-24T21:40:42.002Z,97.00
2018-09-24T21:43:15.895Z,97.00
2018-09-24T21:45:49.687Z,97.00
2018-09-24T21:48:23.550Z,97.00
2018-09-24T21:50:58.463Z,97.00
2018-09-24T21:53:34.637Z,97.00
2018-09-24T21:56:08.441Z,97.00
2018-09-24T21:58:42.076Z,97.00
2018-09-24T22:01:15.924Z,97.00
2018-09-24T22:03:50.431Z,97.00
2018-09-24T22:06:24.329Z,97.00
2018-09-24T22:08:58.174Z,97.00
2018-09-24T22:11:33.417Z,97.00
2018-09-24T22:14:07.372Z,97.00
2018-09-24T22:16:40.993Z,97.00
2018-09-24T22:19:14.662Z,97.00
2018-09-24T22:21:48.455Z,97.00
2018-09-24T22:24:22.029Z,97.00
2018-09-24T22:26:56.007Z,97.00
2018-09-24T22:29:29.780Z,97.00
2018-09-24T22:32:03.630Z,97.00
2018-09-24T22:34:38.505Z,97.00
2018-09-24T22:37:12.965Z,97.00
2018-09-24T22:39:46.574Z,97.00
2018-09-24T22:42:20.454Z,97.00
2018-09-24T22:44:53.979Z,97.00
2018-09-24T22:47:27.846Z,97.00
2018-09-24T22:50:04.243Z,97.00
2018-09-24T22:52:38.082Z,97.00
2018-09-24T22:55:14.540Z,97.00
2018-09-24T22:57:48.223Z,97.00
2018-09-24T23:00:22.084Z,97.00
2018-09-24T23:02:56.631Z,97.00
2018-09-24T23:05:30.370Z,97.00
2018-09-24T23:08:04.084Z,97.00
2018-09-24T23:10:37.934Z,97.00
2018-09-24T23:13:11.899Z,97.00
2018-09-24T23:15:45.683Z,97.00
2018-09-24T23:18:19.454Z,97.00
2018-09-24T23:20:53.540Z,97.00
2018-09-24T23:23:27.225Z,97.00
2018-09-24T23:26:01.319Z,97.00
2018-09-24T23:28:35.380Z,97.00
2018-09-24T23:31:09.176Z,97.00
2018-09-24T23:33:43.097Z,97.00
2018-09-24T23:36:16.821Z,97.00
2018-09-24T23:38:50.614Z,97.00
2018-09-24T23:41:24.243Z,97.00
2018-09-24T23:43:57.931Z,97.00
2018-09-24T23:46:31.690Z,97.00
2018-09-24T23:49:05.558Z,97.00
2018-09-24T23:51:39.211Z,97.00
2018-09-24T23:54:12.941Z,97.00
2018-09-24T23:56:46.592Z,97.00
2018-09-24T23:59:20.371Z,97.00
